Time;durP1;ratioP1;P1;durP2;ratioP2;P2;SDS_P1;SDS_P2;PMS_P1;PMS_P2;Temp;Humidity;BMP_temperature;BMP_pressure;BME280_temperature;BME280_humidity;BME280_pressure;Samples;Min_cycle;Max_cycle;Signal;HPM_P1;HPM_P2
2021/05/23 00:00:18;;;;;;;14.20;2.92;;;8.90;97.10;;;;;;5033129;28;20512;-74
2021/05/23 00:02:43;;;;;;;8.60;2.58;;;8.90;97.30;;;;;;5033639;28;20037;-73
2021/05/23 00:05:13;;;;;;;11.13;3.55;;;8.90;97.30;;;;;;5033952;28;20044;-73
2021/05/23 00:07:49;;;;;;;10.27;3.45;;;8.80;97.40;;;;;;5033313;28;20091;-74
2021/05/23 00:10:16;;;;;;;10.77;3.13;;;8.80;97.40;;;;;;5033377;28;20466;-73
2021/05/23 00:12:42;;;;;;;9.43;3.22;;;8.80;97.30;;;;;;5033616;28;20466;-74
2021/05/23 00:15:09;;;;;;;12.65;3.28;;;8.80;97.40;;;;;;5033488;28;20037;-74
2021/05/23 00:17:34;;;;;;;7.93;2.78;;;8.70;97.50;;;;;;5033304;28;20092;-74
2021/05/23 00:20:00;;;;;;;9.88;2.78;;;8.70;97.60;;;;;;5032929;28;20497;-74
2021/05/23 00:22:26;;;;;;;10.20;3.35;;;8.70;97.60;;;;;;5033756;28;20045;-74
2021/05/23 00:24:52;;;;;;;10.52;2.95;;;8.70;97.70;;;;;;5033178;28;20041;-74
2021/05/23 00:27:17;;;;;;;8.95;3.03;;;8.70;97.60;;;;;;5015792;28;20083;-74
2021/05/23 00:29:43;;;;;;;8.45;3.72;;;8.70;97.70;;;;;;5032821;28;20052;-74
2021/05/23 00:32:09;;;;;;;13.70;3.33;;;8.70;97.70;;;;;;5033184;28;20520;-74
2021/05/23 00:34:34;;;;;;;14.43;4.28;;;8.70;97.70;;;;;;5033386;28;20033;-74
2021/05/23 00:37:00;;;;;;;12.35;3.75;;;8.70;97.80;;;;;;5033307;28;20106;-74
2021/05/23 00:39:26;;;;;;;15.27;2.92;;;8.70;97.70;;;;;;5032914;28;20042;-74
2021/05/23 00:41:51;;;;;;;10.07;2.83;;;8.70;97.70;;;;;;5033424;28;20038;-73
2021/05/23 00:44:17;;;;;;;13.20;3.15;;;8.70;97.70;;;;;;5033738;28;20039;-73
2021/05/23 00:46:43;;;;;;;8.73;2.55;;;8.70;97.70;;;;;;5033812;28;20118;-73
2021/05/23 00:49:08;;;;;;;9.43;2.58;;;8.70;97.70;;;;;;5032631;28;20044;-73
2021/05/23 00:51:34;;;;;;;11.00;2.88;;;8.70;97.70;;;;;;5032898;28;20045;-74
2021/05/23 00:54:00;;;;;;;15.02;3.35;;;8.60;97.70;;;;;;5033141;28;20048;-73
2021/05/23 00:56:25;;;;;;;8.57;2.95;;;8.60;97.70;;;;;;5033895;28;20076;-73
2021/05/23 00:58:51;;;;;;;12.82;4.30;;;8.50;97.60;;;;;;5037186;28;20069;-74
2021/05/23 01:01:45;;;;;;;8.20;3.70;;;8.50;97.70;;;;;;5037484;28;20044;-73
2021/05/23 01:04:11;;;;;;;9.65;3.47;;;8.50;97.80;;;;;;5036850;28;20045;-74
2021/05/23 01:06:37;;;;;;;8.98;3.28;;;8.40;97.70;;;;;;5036959;28;20543;-73
2021/05/23 01:09:09;;;;;;;9.32;3.08;;;8.40;97.90;;;;;;5036454;28;20042;-73
2021/05/23 01:12:13;;;;;;;11.33;3.30;;;8.40;97.90;;;;;;5036601;28;20076;-73
2021/05/23 01:14:54;;;;;;;9.55;3.28;;;8.30;98.10;;;;;;5036603;28;20744;-74
2021/05/23 01:17:23;;;;;;;11.27;4.20;;;8.30;98.10;;;;;;5036600;28;20033;-73
2021/05/23 01:20:09;;;;;;;10.38;3.83;;;8.30;98.10;;;;;;5035995;28;20042;-73
2021/05/23 01:22:48;;;;;;;9.07;3.10;;;8.30;98.30;;;;;;5037146;28;20048;-74
2021/05/23 01:25:19;;;;;;;10.02;3.20;;;8.30;98.20;;;;;;5036547;28;20046;-73
2021/05/23 01:27:48;;;;;;;9.98;4.28;;;8.20;98.20;;;;;;5036737;28;20044;-73
2021/05/23 01:30:35;;;;;;;11.10;3.88;;;8.20;98.20;;;;;;5036434;28;20416;-73
2021/05/23 01:33:05;;;;;;;15.77;3.50;;;8.20;98.20;;;;;;5037005;28;20111;-73
2021/05/23 01:35:33;;;;;;;10.95;3.30;;;8.20;98.20;;;;;;5036271;28;20044;-73
2021/05/23 01:38:00;;;;;;;15.18;3.35;;;8.20;98.20;;;;;;5036200;28;20046;-74
2021/05/23 01:40:28;;;;;;;5.32;3.55;;;8.20;98.10;;;;;;5035829;28;20396;-73
2021/05/23 01:42:55;;;;;;;7.93;3.20;;;8.20;98.20;;;;;;5018548;28;20084;-73
2021/05/23 01:45:21;;;;;;;10.40;2.97;;;8.20;98.20;;;;;;5036124;28;20045;-73
2021/05/23 01:47:47;;;;;;;11.57;3.40;;;8.10;98.20;;;;;;5036263;28;20034;-73
2021/05/23 01:50:13;;;;;;;8.38;2.58;;;8.10;98.30;;;;;;5035920;28;20052;-73
2021/05/23 01:52:49;;;;;;;7.45;3.08;;;8.00;98.20;;;;;;5036163;28;20061;-74
2021/05/23 01:55:16;;;;;;;10.57;3.20;;;8.00;98.20;;;;;;5035780;28;20481;-73
2021/05/23 01:57:43;;;;;;;8.20;3.35;;;8.00;98.30;;;;;;5036090;28;20429;-73
2021/05/23 02:00:10;;;;;;;9.50;3.38;;;8.00;98.30;;;;;;5035439;28;20041;-73
2021/05/23 02:02:36;;;;;;;10.63;3.03;;;7.90;98.30;;;;;;5035694;28;20473;-73
2021/05/23 02:05:07;;;;;;;11.55;3.88;;;7.90;98.50;;;;;;5035637;28;20048;-73
2021/05/23 02:07:33;;;;;;;10.95;3.30;;;7.90;98.50;;;;;;5035181;28;20029;-73
2021/05/23 02:09:58;;;;;;;13.43;3.60;;;7.90;98.60;;;;;;5034787;28;20091;-73
2021/05/23 02:12:25;;;;;;;9.98;3.20;;;7.90;98.50;;;;;;5035473;28;20504;-73
2021/05/23 02:14:51;;;;;;;8.15;3.50;;;7.80;98.60;;;;;;5017882;28;20041;-73
2021/05/23 02:17:17;;;;;;;9.05;3.17;;;7.90;98.50;;;;;;5035842;28;20440;-73
2021/05/23 02:19:49;;;;;;;12.25;2.83;;;7.80;98.50;;;;;;5035245;28;20077;-73
2021/05/23 02:22:15;;;;;;;7.72;2.83;;;7.90;98.30;;;;;;5035377;28;20045;-73
2021/05/23 02:24:43;;;;;;;10.90;3.03;;;7.80;98.30;;;;;;5035816;28;20040;-73
2021/05/23 02:27:09;;;;;;;12.18;3.08;;;7.80;98.30;;;;;;5035999;28;20040;-73
2021/05/23 02:29:35;;;;;;;10.13;3.10;;;7.80;98.30;;;;;;5035168;28;20053;-73
2021/05/23 02:32:05;;;;;;;8.30;3.28;;;7.80;98.40;;;;;;5035182;28;20487;-73
2021/05/23 02:34:31;;;;;;;9.07;3.35;;;7.80;98.40;;;;;;5035784;28;20044;-73
2021/05/23 02:37:00;;;;;;;10.77;3.60;;;7.90;98.40;;;;;;5035091;28;20065;-73
2021/05/23 02:39:26;;;;;;;17.02;3.22;;;7.80;98.40;;;;;;5034931;28;20060;-73
2021/05/23 02:41:52;;;;;;;9.88;3.05;;;7.80;98.70;;;;;;5035697;28;20462;-73
2021/05/23 02:44:18;;;;;;;8.15;2.88;;;7.80;98.40;;;;;;5035118;28;20033;-73
2021/05/23 02:46:44;;;;;;;8.98;2.80;;;7.80;98.40;;;;;;5034962;28;20044;-73
2021/05/23 02:49:14;;;;;;;8.48;3.08;;;7.80;98.50;;;;;;5034485;28;20048;-73
2021/05/23 02:51:41;;;;;;;6.57;2.85;;;7.80;98.40;;;;;;5035341;28;20045;-73
2021/05/23 02:54:07;;;;;;;7.75;2.70;;;7.80;98.50;;;;;;5035451;28;20042;-73
2021/05/23 02:56:33;;;;;;;10.00;3.30;;;7.80;98.30;;;;;;5035141;28;20047;-73
2021/05/23 02:58:59;;;;;;;8.88;2.70;;;7.80;98.40;;;;;;5034833;28;20041;-73
2021/05/23 03:01:25;;;;;;;6.78;2.80;;;7.80;98.40;;;;;;5034498;28;20125;-73
2021/05/23 03:03:51;;;;;;;8.05;2.90;;;7.80;98.40;;;;;;5035498;28;20069;-73
2021/05/23 03:06:16;;;;;;;8.73;2.42;;;7.70;98.40;;;;;;5034474;28;20116;-74
2021/05/23 03:08:42;;;;;;;10.38;3.35;;;7.70;98.50;;;;;;5034827;28;20045;-73
2021/05/23 03:11:08;;;;;;;13.80;3.28;;;7.60;98.40;;;;;;5035077;28;20087;-73
2021/05/23 03:13:35;;;;;;;11.73;3.53;;;7.70;98.50;;;;;;5034296;28;20049;-73
2021/05/23 03:16:01;;;;;;;5.22;2.90;;;7.60;98.40;;;;;;5034357;28;20559;-73
2021/05/23 03:18:27;;;;;;;10.57;2.85;;;7.60;98.50;;;;;;5034639;28;20120;-74
2021/05/23 03:20:52;;;;;;;9.70;2.97;;;7.50;98.50;;;;;;5034052;28;20037;-73
2021/05/23 03:23:18;;;;;;;7.60;2.92;;;7.60;98.60;;;;;;5034942;28;20034;-73
2021/05/23 03:25:44;;;;;;;12.50;3.33;;;7.50;98.50;;;;;;5034839;28;20040;-73
2021/05/23 03:28:10;;;;;;;5.88;3.00;;;7.50;98.60;;;;;;5034137;28;20037;-73
2021/05/23 03:30:41;;;;;;;10.60;3.40;;;7.50;98.60;;;;;;5033797;28;20052;-73
2021/05/23 03:33:08;;;;;;;8.48;3.40;;;7.50;98.60;;;;;;5033925;28;20082;-73
2021/05/23 03:35:34;;;;;;;9.85;2.80;;;7.50;98.70;;;;;;5034502;28;20037;-73
2021/05/23 03:38:01;;;;;;;8.82;3.33;;;7.60;98.80;;;;;;5034597;28;20041;-73
2021/05/23 03:40:26;;;;;;;12.88;3.67;;;7.60;98.80;;;;;;5033627;28;20041;-73
2021/05/23 03:42:52;;;;;;;10.18;2.90;;;7.60;98.90;;;;;;5033790;28;20496;-73
2021/05/23 03:45:20;;;;;;;7.45;3.75;;;7.60;99.00;;;;;;5016887;28;20425;-73
2021/05/23 03:47:46;;;;;;;9.75;4.13;;;7.60;99.00;;;;;;5033618;28;20069;-73
2021/05/23 03:50:15;;;;;;;9.93;3.40;;;7.60;99.00;;;;;;5033379;28;20552;-73
2021/05/23 03:52:40;;;;;;;8.27;3.55;;;7.70;99.00;;;;;;5034293;28;20044;-73
2021/05/23 03:55:07;;;;;;;8.82;3.42;;;7.70;99.00;;;;;;5033846;28;20033;-73
2021/05/23 03:57:33;;;;;;;8.73;3.70;;;7.70;99.00;;;;;;5033672;28;20044;-74
2021/05/23 03:59:59;;;;;;;12.52;3.63;;;7.80;99.10;;;;;;5033530;28;20377;-73
2021/05/23 04:02:24;;;;;;;12.45;3.25;;;7.80;99.10;;;;;;5034074;28;20036;-73
2021/05/23 04:04:59;;;;;;;10.05;3.55;;;7.90;99.00;;;;;;5033703;28;20037;-73
2021/05/23 04:07:27;;;;;;;8.48;3.83;;;7.90;99.10;;;;;;5033622;28;20457;-73
2021/05/23 04:09:54;;;;;;;11.32;3.55;;;7.90;99.10;;;;;;5033026;28;20037;-73
2021/05/23 04:12:24;;;;;;;9.65;3.72;;;8.00;99.00;;;;;;5033692;28;20049;-73
2021/05/23 04:14:50;;;;;;;8.82;3.08;;;8.00;99.00;;;;;;5034082;28;20042;-73
2021/05/23 04:17:15;;;;;;;8.70;3.75;;;8.00;98.90;;;;;;5033919;28;20041;-73
2021/05/23 04:19:41;;;;;;;9.35;3.10;;;8.10;98.90;;;;;;5033078;28;20402;-73
2021/05/23 04:22:08;;;;;;;9.23;3.03;;;8.10;98.90;;;;;;5033942;28;20434;-73
2021/05/23 04:24:35;;;;;;;6.90;3.53;;;8.20;98.90;;;;;;5033414;28;20045;-73
2021/05/23 04:27:01;;;;;;;9.88;3.50;;;8.20;98.90;;;;;;5033884;28;20041;-73
2021/05/23 04:29:27;;;;;;;6.97;3.40;;;8.30;98.90;;;;;;5032830;28;20088;-73
2021/05/23 04:31:53;;;;;;;8.18;3.17;;;8.30;98.70;;;;;;5037286;28;20037;-73
2021/05/23 04:34:19;;;;;;;10.35;4.38;;;8.30;98.70;;;;;;5040216;28;20033;-73
2021/05/23 04:36:44;;;;;;;13.13;3.47;;;8.40;98.60;;;;;;5040140;28;20034;-73
2021/05/23 04:39:10;;;;;;;9.93;3.25;;;8.40;98.60;;;;;;5039643;28;20079;-73
2021/05/23 04:41:36;;;;;;;11.35;3.45;;;8.40;98.60;;;;;;5040024;28;20039;-73
2021/05/23 04:44:01;;;;;;;9.02;3.30;;;8.40;98.40;;;;;;5039973;28;20038;-73
2021/05/23 04:46:27;;;;;;;12.60;3.92;;;8.40;98.50;;;;;;5039708;28;20168;-73
2021/05/23 04:48:53;;;;;;;7.80;3.15;;;8.50;98.60;;;;;;5039296;28;20095;-74
2021/05/23 04:51:18;;;;;;;9.95;3.95;;;8.50;98.50;;;;;;5039777;28;20037;-73
2021/05/23 04:53:44;;;;;;;12.38;4.30;;;8.60;98.40;;;;;;5039683;28;20029;-73
2021/05/23 04:56:10;;;;;;;7.88;3.42;;;8.70;98.50;;;;;;5039957;28;20033;-73
2021/05/23 04:58:35;;;;;;;10.65;3.78;;;8.90;98.40;;;;;;5039896;28;20045;-73
2021/05/23 05:01:02;;;;;;;7.90;3.70;;;9.00;98.20;;;;;;5039611;28;20135;-73
2021/05/23 05:03:27;;;;;;;8.23;3.72;;;9.20;98.00;;;;;;5039596;28;20441;-73
2021/05/23 05:05:53;;;;;;;9.05;3.03;;;9.60;97.90;;;;;;5039540;28;20505;-73
2021/05/23 05:08:19;;;;;;;10.52;3.38;;;10.00;97.50;;;;;;5039648;28;20469;-73
2021/05/23 05:10:44;;;;;;;9.52;2.75;;;10.20;96.80;;;;;;5039464;28;20041;-73
2021/05/23 05:13:10;;;;;;;10.75;3.08;;;10.30;96.70;;;;;;5039880;28;20152;-73
2021/05/23 05:15:36;;;;;;;9.35;2.75;;;10.30;96.40;;;;;;5039555;28;20064;-73
2021/05/23 05:18:02;;;;;;;12.00;3.97;;;10.30;96.20;;;;;;5039528;28;20525;-73
2021/05/23 05:20:28;;;;;;;4.90;3.10;;;10.30;96.20;;;;;;5039056;28;20132;-73
2021/05/23 05:22:54;;;;;;;12.65;2.90;;;10.30;96.20;;;;;;5039545;28;20124;-73
2021/05/23 05:25:20;;;;;;;12.68;2.92;;;10.20;96.10;;;;;;5039647;28;20042;-73
2021/05/23 05:27:46;;;;;;;7.97;2.58;;;10.30;96.10;;;;;;5039451;28;20449;-73
2021/05/23 05:30:12;;;;;;;15.68;4.38;;;10.30;96.50;;;;;;5021289;28;20080;-73
2021/05/23 05:32:38;;;;;;;9.48;3.47;;;10.50;96.20;;;;;;5039967;28;20544;-74
2021/05/23 05:35:04;;;;;;;9.20;3.45;;;10.50;95.80;;;;;;5039381;28;20037;-73
2021/05/23 05:37:30;;;;;;;10.23;3.53;;;10.50;95.60;;;;;;5039145;28;20037;-73
2021/05/23 05:39:56;;;;;;;12.68;4.07;;;10.50;95.50;;;;;;5039016;28;20091;-73
2021/05/23 05:42:22;;;;;;;13.57;3.50;;;10.60;95.40;;;;;;5038550;28;20528;-73
2021/05/23 05:44:48;;;;;;;10.23;3.53;;;10.70;95.50;;;;;;5035863;28;20125;-73
2021/05/23 05:47:14;;;;;;;16.50;3.00;;;11.10;95.20;;;;;;5036651;28;20038;-73
2021/05/23 05:49:40;;;;;;;10.20;2.90;;;11.50;94.80;;;;;;5035864;28;20478;-73
2021/05/23 05:52:09;;;;;;;8.95;3.03;;;12.00;94.50;;;;;;5036147;28;20103;-73
2021/05/23 05:54:35;;;;;;;9.05;2.97;;;12.50;93.50;;;;;;5036284;28;20064;-73
2021/05/23 05:57:01;;;;;;;12.93;3.55;;;12.70;92.70;;;;;;5036413;28;20033;-73
2021/05/23 05:59:27;;;;;;;8.32;2.65;;;12.90;92.30;;;;;;5035819;28;20068;-73
2021/05/23 06:01:52;;;;;;;8.38;2.45;;;12.90;91.80;;;;;;5035695;28;20038;-73
2021/05/23 06:04:18;;;;;;;10.23;2.53;;;12.70;92.50;;;;;;5035906;28;20116;-73
2021/05/23 06:06:44;;;;;;;7.90;2.70;;;12.40;92.40;;;;;;5035802;28;20037;-73
2021/05/23 06:09:09;;;;;;;7.50;3.00;;;12.20;92.60;;;;;;5035206;28;20037;-73
2021/05/23 06:11:35;;;;;;;11.23;2.58;;;12.00;92.90;;;;;;5036202;28;20050;-73
2021/05/23 06:14:01;;;;;;;13.25;3.45;;;11.90;93.20;;;;;;5036151;28;20038;-73
2021/05/23 06:16:27;;;;;;;8.38;2.55;;;11.90;93.60;;;;;;5035415;28;20041;-73
2021/05/23 06:18:53;;;;;;;4.07;2.72;;;11.80;93.90;;;;;;5035135;28;20106;-74
2021/05/23 06:21:18;;;;;;;6.55;2.42;;;11.70;93.80;;;;;;5035512;28;20037;-73
2021/05/23 06:23:44;;;;;;;8.20;2.65;;;11.60;93.60;;;;;;5035324;28;20416;-74
2021/05/23 06:26:14;;;;;;;6.97;2.65;;;11.60;94.10;;;;;;5035772;28;20033;-73
2021/05/23 06:28:42;;;;;;;11.07;3.60;;;11.60;94.20;;;;;;5034964;28;20571;-73
2021/05/23 06:31:08;;;;;;;5.93;2.58;;;11.60;94.30;;;;;;5035145;28;20033;-73
2021/05/23 06:33:34;;;;;;;8.98;2.78;;;11.70;94.40;;;;;;5035372;28;20038;-73
2021/05/23 06:36:00;;;;;;;8.02;2.75;;;11.80;94.10;;;;;;5035688;28;20044;-74
2021/05/23 06:38:26;;;;;;;7.07;2.20;;;12.10;93.70;;;;;;5035366;28;20469;-74
2021/05/23 06:40:52;;;;;;;5.57;2.40;;;12.30;93.30;;;;;;5035098;28;20048;-73
2021/05/23 06:43:17;;;;;;;6.60;2.33;;;12.20;92.70;;;;;;5035593;28;20083;-73
2021/05/23 06:45:43;;;;;;;5.68;2.30;;;12.10;93.10;;;;;;5035580;28;20060;-73
2021/05/23 06:48:09;;;;;;;6.88;2.60;;;11.90;93.30;;;;;;5034723;28;20042;-73
2021/05/23 06:50:37;;;;;;;7.93;3.58;;;12.00;93.40;;;;;;5034723;28;20040;-73
2021/05/23 06:53:03;;;;;;;10.07;3.00;;;11.90;93.50;;;;;;5035504;28;20076;-71
2021/05/23 06:55:29;;;;;;;7.85;2.53;;;11.80;93.50;;;;;;5034579;28;20037;-73
2021/05/23 06:57:55;;;;;;;8.13;2.92;;;11.80;93.30;;;;;;5034820;28;20046;-73
2021/05/23 07:00:21;;;;;;;11.68;2.85;;;11.80;93.20;;;;;;5034296;28;20382;-73
2021/05/23 07:02:47;;;;;;;9.40;3.22;;;11.70;93.50;;;;;;5034838;28;20033;-73
2021/05/23 07:05:14;;;;;;;8.63;2.20;;;11.70;93.40;;;;;;5035369;28;20087;-74
2021/05/23 07:07:39;;;;;;;9.10;2.10;;;11.70;93.40;;;;;;5035197;28;20091;-73
2021/05/23 07:10:06;;;;;;;7.20;2.30;;;11.60;93.50;;;;;;5034211;28;20441;-73
2021/05/23 07:12:32;;;;;;;9.00;3.22;;;11.60;93.60;;;;;;5034450;28;20443;-73
2021/05/23 07:14:58;;;;;;;8.45;2.67;;;11.60;93.70;;;;;;5034338;28;20072;-73
2021/05/23 07:17:24;;;;;;;6.63;2.20;;;11.60;93.80;;;;;;5034749;28;20049;-73
2021/05/23 07:19:49;;;;;;;10.30;2.53;;;11.70;93.50;;;;;;5034206;28;20062;-73
2021/05/23 07:22:15;;;;;;;7.38;2.20;;;11.90;93.40;;;;;;5034721;28;20047;-73
2021/05/23 07:24:41;;;;;;;6.82;2.35;;;12.00;93.20;;;;;;5034701;28;20037;-73
2021/05/23 07:27:07;;;;;;;10.80;2.70;;;12.20;92.90;;;;;;5034675;28;20444;-73
2021/05/23 07:29:32;;;;;;;6.75;2.40;;;12.30;92.90;;;;;;5034156;28;20037;-74
2021/05/23 07:31:58;;;;;;;9.80;2.45;;;12.40;93.10;;;;;;5034077;28;20041;-73
2021/05/23 07:34:24;;;;;;;9.38;2.55;;;13.10;92.60;;;;;;5034007;28;20037;-73
2021/05/23 07:36:49;;;;;;;3.00;1.38;;;13.80;91.20;;;;;;5033802;28;20033;-73
2021/05/23 07:39:15;;;;;;;7.57;2.30;;;14.10;90.80;;;;;;5033493;28;20049;-72
2021/05/23 07:41:41;;;;;;;6.78;2.03;;;14.10;90.20;;;;;;5039146;28;20033;-74
2021/05/23 07:44:06;;;;;;;6.38;2.33;;;14.30;89.70;;;;;;5036070;28;20044;-74
2021/05/23 07:46:32;;;;;;;7.07;2.42;;;14.60;87.40;;;;;;5052178;28;20047;-73
2021/05/23 07:48:58;;;;;;;7.47;1.90;;;15.00;87.80;;;;;;5053347;28;20086;-74
2021/05/23 07:51:23;;;;;;;4.88;1.65;;;15.10;86.10;;;;;;5053969;28;20045;-73
2021/05/23 07:53:51;;;;;;;5.45;1.98;;;14.60;84.10;;;;;;5053598;28;20064;-73
2021/05/23 07:56:17;;;;;;;5.15;2.58;;;14.10;85.00;;;;;;5053687;28;20108;-73
2021/05/23 07:58:42;;;;;;;5.28;1.55;;;13.80;85.10;;;;;;5052435;28;20464;-76
2021/05/23 08:01:08;;;;;;;5.93;1.42;;;13.50;85.50;;;;;;5053829;28;20041;-73
2021/05/23 08:03:34;;;;;;;5.60;1.52;;;13.20;86.10;;;;;;5053675;28;20040;-72
2021/05/23 08:05:59;;;;;;;7.72;1.63;;;13.10;87.10;;;;;;5052726;28;20033;-72
2021/05/23 08:08:25;;;;;;;7.75;2.17;;;13.00;88.20;;;;;;5053673;28;20396;-72
2021/05/23 08:10:51;;;;;;;5.18;1.42;;;13.00;89.20;;;;;;5053401;28;20483;-73
2021/05/23 08:13:17;;;;;;;3.95;1.50;;;12.90;88.80;;;;;;5053826;28;20037;-72
2021/05/23 08:15:43;;;;;;;5.13;1.90;;;13.00;89.50;;;;;;5053306;28;20385;-73
2021/05/23 08:18:10;;;;;;;9.23;2.28;;;13.00;89.90;;;;;;5053271;28;20045;-73
2021/05/23 08:20:36;;;;;;;5.18;2.00;;;13.10;90.00;;;;;;5052767;28;20488;-73
2021/05/23 08:23:02;;;;;;;8.50;2.10;;;13.20;90.20;;;;;;5053854;28;20113;-73
2021/05/23 08:25:28;;;;;;;7.78;2.70;;;12.90;90.20;;;;;;5053833;28;20064;-73
2021/05/23 08:27:53;;;;;;;9.88;2.42;;;12.90;90.60;;;;;;5052950;28;20427;-72
2021/05/23 08:30:20;;;;;;;9.88;3.00;;;12.90;90.90;;;;;;5052950;28;20044;-73
2021/05/23 08:32:45;;;;;;;7.80;2.97;;;12.90;90.90;;;;;;5053139;28;20055;-73
2021/05/23 08:35:12;;;;;;;7.65;2.70;;;12.90;90.80;;;;;;5053104;28;20037;-72
2021/05/23 08:37:38;;;;;;;7.40;2.75;;;12.90;90.70;;;;;;5053576;28;20033;-73
2021/05/23 08:40:05;;;;;;;9.65;3.70;;;12.80;91.20;;;;;;5052823;28;20037;-72
2021/05/23 08:42:32;;;;;;;8.63;3.75;;;12.80;91.40;;;;;;5052995;28;20044;-73
2021/05/23 08:44:58;;;;;;;9.15;3.50;;;12.70;91.10;;;;;;5053040;28;20044;-73
2021/05/23 08:47:24;;;;;;;6.75;3.58;;;12.60;91.20;;;;;;5053291;28;20041;-73
2021/05/23 08:49:51;;;;;;;10.85;4.18;;;12.50;91.50;;;;;;5053058;28;20072;-73
2021/05/23 08:52:20;;;;;;;6.13;3.83;;;12.60;92.00;;;;;;5052932;28;20037;-73
2021/05/23 08:54:48;;;;;;;10.00;4.20;;;12.70;92.10;;;;;;5053050;28;20476;-73
2021/05/23 08:57:22;;;;;;;8.40;4.30;;;12.70;92.10;;;;;;5052871;28;20065;-72
2021/05/23 08:59:48;;;;;;;11.70;5.32;;;12.70;91.60;;;;;;5053177;28;20051;-72
2021/05/23 09:02:13;;;;;;;11.27;4.97;;;12.70;91.60;;;;;;5052568;28;20049;-73
2021/05/23 09:04:49;;;;;;;8.63;4.68;;;12.70;91.80;;;;;;5053190;28;20099;-72
2021/05/23 09:07:16;;;;;;;8.32;4.82;;;12.70;92.20;;;;;;5052705;28;20048;-72
2021/05/23 09:09:48;;;;;;;11.73;5.55;;;12.70;92.40;;;;;;5052346;28;20053;-72
2021/05/23 09:12:17;;;;;;;10.25;5.55;;;12.70;92.40;;;;;;5053137;28;20039;-72
2021/05/23 09:14:46;;;;;;;9.75;5.63;;;12.80;92.30;;;;;;5052741;28;20033;-72
2021/05/23 09:17:24;;;;;;;9.30;5.35;;;12.60;92.10;;;;;;5053749;28;20115;-73
2021/05/23 09:19:51;;;;;;;14.65;5.68;;;12.60;92.20;;;;;;5056546;28;20048;-72
2021/05/23 09:22:20;;;;;;;10.52;5.55;;;12.50;92.10;;;;;;5056548;28;20144;-74
2021/05/23 09:25:13;;;;;;;11.60;5.25;;;12.60;92.10;;;;;;5056538;28;20047;-72
2021/05/23 09:27:43;;;;;;;11.10;5.50;;;12.60;92.30;;;;;;5053937;28;20476;-73
2021/05/23 09:30:18;;;;;;;9.52;5.20;;;12.50;92.20;;;;;;5056095;28;20041;-73
2021/05/23 09:32:44;;;;;;;11.50;5.85;;;12.50;92.70;;;;;;5056374;28;20481;-72
2021/05/23 09:35:11;;;;;;;13.07;6.10;;;12.50;92.70;;;;;;5056260;28;20056;-73
2021/05/23 09:37:37;;;;;;;9.88;6.40;;;12.50;93.00;;;;;;5056594;28;20033;-72
2021/05/23 09:40:15;;;;;;;9.73;7.25;;;12.70;92.60;;;;;;5055115;28;20048;-73
2021/05/23 09:42:52;;;;;;;9.88;6.95;;;12.80;91.90;;;;;;5056689;28;20044;-72
2021/05/23 09:45:20;;;;;;;8.82;5.88;;;13.00;91.70;;;;;;5055859;28;20120;-72
2021/05/23 09:47:57;;;;;;;7.63;5.70;;;13.40;91.70;;;;;;5056149;28;20501;-72
2021/05/23 09:50:34;;;;;;;7.38;4.72;;;13.70;91.90;;;;;;5056222;28;20052;-72
2021/05/23 09:53:00;;;;;;;6.45;5.18;;;13.80;91.40;;;;;;5056504;28;20059;-71
2021/05/23 09:55:27;;;;;;;6.28;4.70;;;13.80;91.60;;;;;;5055686;28;20615;-72
2021/05/23 09:57:53;;;;;;;5.82;4.55;;;13.90;91.20;;;;;;5055804;28;20116;-72
2021/05/23 10:00:19;;;;;;;6.10;5.07;;;13.90;91.20;;;;;;5055561;28;20119;-72
2021/05/23 10:02:54;;;;;;;6.82;3.90;;;14.00;90.40;;;;;;5056205;28;20431;-72
2021/05/23 10:05:21;;;;;;;5.32;4.15;;;14.10;90.00;;;;;;5056226;28;20378;-72
2021/05/23 10:07:47;;;;;;;5.45;4.38;;;14.40;90.30;;;;;;5056406;28;20072;-72
2021/05/23 10:10:13;;;;;;;4.55;3.65;;;14.70;90.00;;;;;;5055209;28;20037;-71
2021/05/23 10:12:40;;;;;;;4.88;4.07;;;14.70;88.70;;;;;;5055775;28;20041;-72
2021/05/23 10:15:07;;;;;;;7.28;4.38;;;14.80;89.70;;;;;;5055938;28;20037;-73
2021/05/23 10:17:37;;;;;;;4.70;4.22;;;14.70;88.30;;;;;;5055589;28;20120;-73
2021/05/23 10:20:09;;;;;;;4.30;3.90;;;14.70;88.10;;;;;;5055135;28;20052;-73
2021/05/23 10:22:39;;;;;;;5.28;4.47;;;14.60;88.70;;;;;;5055377;28;20116;-72
2021/05/23 10:25:09;;;;;;;5.60;4.55;;;14.80;88.30;;;;;;5055879;28;20068;-72
2021/05/23 10:27:39;;;;;;;8.15;4.55;;;14.80;87.60;;;;;;5055570;28;20044;-72
2021/05/23 10:30:07;;;;;;;6.05;4.97;;;14.60;88.90;;;;;;5054203;28;20548;-73
2021/05/23 10:32:35;;;;;;;7.97;5.20;;;14.40;88.50;;;;;;5055802;28;20120;-72
2021/05/23 10:35:15;;;;;;;12.20;6.00;;;14.10;90.10;;;;;;5037280;28;20045;-73
2021/05/23 10:37:43;;;;;;;8.40;4.18;;;13.60;91.30;;;;;;5055561;28;20090;-73
2021/05/23 10:40:27;;;;;;;6.70;2.20;;;12.90;92.30;;;;;;5054799;28;20032;-73
2021/05/23 10:42:55;;;;;;;3.20;1.90;;;12.00;91.90;;;;;;5055006;28;20033;-73
2021/05/23 10:45:30;;;;;;;2.95;1.92;;;11.70;93.40;;;;;;5055496;28;20033;-73
2021/05/23 10:47:57;;;;;;;3.15;2.05;;;11.40;94.10;;;;;;5054741;28;20041;-73
2021/05/23 10:50:35;;;;;;;5.20;2.17;;;11.20;95.10;;;;;;5054732;28;20048;-72
2021/05/23 10:53:02;;;;;;;4.15;2.00;;;11.10;95.80;;;;;;5054847;28;20060;-72
2021/05/23 10:55:28;;;;;;;3.10;1.80;;;11.00;96.00;;;;;;5055260;28;20033;-73
2021/05/23 10:57:56;;;;;;;3.00;1.83;;;10.90;96.30;;;;;;5055250;28;20385;-72
2021/05/23 11:00:27;;;;;;;1.75;1.38;;;10.90;96.60;;;;;;5054359;28;20044;-73
2021/05/23 11:02:53;;;;;;;1.73;1.35;;;10.90;96.70;;;;;;5054683;28;20048;-72
2021/05/23 11:05:25;;;;;;;3.92;1.70;;;10.90;96.70;;;;;;5055125;28;20111;-72
2021/05/23 11:08:03;;;;;;;2.65;1.90;;;11.00;97.20;;;;;;5054525;28;20043;-72
2021/05/23 11:10:48;;;;;;;2.78;2.20;;;11.10;97.10;;;;;;5054356;28;20072;-73
2021/05/23 11:13:26;;;;;;;2.80;1.95;;;11.20;97.30;;;;;;5055044;28;20047;-72
2021/05/23 11:15:53;;;;;;;3.83;2.60;;;11.30;97.10;;;;;;5054537;28;20041;-72
2021/05/23 11:18:26;;;;;;;2.88;2.30;;;11.50;97.40;;;;;;5054432;28;20041;-68
2021/05/23 11:20:58;;;;;;;3.05;2.08;;;11.50;97.00;;;;;;5054472;28;20049;-74
2021/05/23 11:23:24;;;;;;;4.88;2.30;;;11.70;96.80;;;;;;5054182;28;20029;-73
2021/05/23 11:26:00;;;;;;;3.33;1.95;;;11.90;96.80;;;;;;5054200;28;20044;-73
2021/05/23 11:28:26;;;;;;;4.55;2.20;;;12.00;97.00;;;;;;5054454;28;20041;-74
2021/05/23 11:30:52;;;;;;;4.00;3.60;;;12.00;97.10;;;;;;5053958;28;20451;-74
2021/05/23 11:33:17;;;;;;;2.97;2.53;;;12.20;97.40;;;;;;5054201;28;20048;-73
2021/05/23 11:35:43;;;;;;;2.97;2.40;;;12.30;97.40;;;;;;5054009;28;20040;-73
2021/05/23 11:38:09;;;;;;;3.08;2.35;;;12.40;97.60;;;;;;5036610;28;20032;-71
2021/05/23 11:40:38;;;;;;;2.67;2.20;;;12.50;97.50;;;;;;5053309;28;20124;-72
2021/05/23 11:43:11;;;;;;;2.17;1.98;;;12.40;97.10;;;;;;5054163;28;20037;-73
2021/05/23 11:45:37;;;;;;;3.75;2.63;;;12.60;96.90;;;;;;5053751;28;20047;-74
2021/05/23 11:48:07;;;;;;;4.65;3.47;;;12.80;97.40;;;;;;5053713;28;20041;-73
2021/05/23 11:50:34;;;;;;;7.60;6.70;;;13.00;97.30;;;;;;5053826;28;20461;-73
2021/05/23 11:53:00;;;;;;;5.65;4.88;;;13.00;97.30;;;;;;5053640;28;20048;-73
2021/05/23 11:55:28;;;;;;;3.83;3.15;;;13.00;97.30;;;;;;5054043;28;20545;-73
2021/05/23 11:58:07;;;;;;;4.38;3.55;;;12.90;97.00;;;;;;5054128;28;20040;-74
2021/05/23 12:00:33;;;;;;;4.43;4.00;;;12.80;96.50;;;;;;5053479;28;20033;-73
2021/05/23 12:03:00;;;;;;;4.97;4.20;;;12.60;96.50;;;;;;5036038;28;20139;-73
2021/05/23 12:05:42;;;;;;;3.63;3.28;;;12.60;96.60;;;;;;5054109;28;20354;-73
2021/05/23 12:08:22;;;;;;;4.10;3.13;;;12.50;96.90;;;;;;5053838;28;20040;-73
2021/05/23 12:10:59;;;;;;;4.28;3.20;;;12.50;97.10;;;;;;5053124;28;20047;-73
2021/05/23 12:13:45;;;;;;;5.53;4.00;;;12.40;97.00;;;;;;5053549;28;20059;-73
2021/05/23 12:16:13;;;;;;;4.18;3.78;;;12.20;97.20;;;;;;5053714;28;20490;-73
2021/05/23 12:18:46;;;;;;;4.65;3.13;;;12.10;97.20;;;;;;5053595;28;20098;-74
2021/05/23 12:21:21;;;;;;;3.80;3.35;;;12.10;97.20;;;;;;5053144;28;20389;-74
2021/05/23 12:23:48;;;;;;;3.75;3.40;;;12.10;97.60;;;;;;5053417;28;20043;-74
2021/05/23 12:26:17;;;;;;;3.50;3.20;;;12.00;97.70;;;;;;5053549;28;20044;-74
2021/05/23 12:28:44;;;;;;;3.60;3.10;;;11.90;97.80;;;;;;5053252;28;20041;-74
2021/05/23 12:31:11;;;;;;;3.05;2.50;;;11.80;97.50;;;;;;5053583;28;20072;-74
2021/05/23 12:33:37;;;;;;;4.28;2.55;;;11.70;97.60;;;;;;5053047;28;20044;-74
2021/05/23 12:36:09;;;;;;;4.13;2.40;;;11.70;98.00;;;;;;5053317;28;20041;-74
2021/05/23 12:38:35;;;;;;;2.33;1.98;;;11.70;98.00;;;;;;5052831;28;20049;-74
2021/05/23 12:41:01;;;;;;;3.42;2.25;;;11.70;98.20;;;;;;5053409;28;20041;-73
2021/05/23 12:43:31;;;;;;;2.90;1.92;;;11.70;98.00;;;;;;5053548;28;20040;-73
2021/05/23 12:46:07;;;;;;;3.05;2.08;;;11.70;97.90;;;;;;5053630;28;20033;-73
2021/05/23 12:48:38;;;;;;;3.72;2.20;;;11.70;97.50;;;;;;5052748;28;20400;-75
2021/05/23 12:51:14;;;;;;;3.10;1.92;;;11.70;97.80;;;;;;5053273;28;20119;-75